createdAt,value
2017-05-14T00:00:24.961Z,0
2017-05-14T00:01:35.224Z,0
2017-05-14T00:02:45.494Z,0
2017-05-14T00:03:55.760Z,0
2017-05-14T00:05:05.398Z,0
2017-05-14T00:06:15.027Z,0
2017-05-14T00:07:24.976Z,0
2017-05-14T00:08:34.922Z,0
2017-05-14T00:09:45.189Z,0
2017-05-14T00:10:54.828Z,0
2017-05-14T00:12:04.778Z,0
2017-05-14T00:13:14.727Z,0
2017-05-14T00:14:24.993Z,0
2017-05-14T00:15:34.631Z,0
2017-05-14T00:16:44.580Z,0
2017-05-14T00:17:54.850Z,0
2017-05-14T00:19:05.119Z,0
2017-05-14T00:20:14.762Z,0
2017-05-14T00:21:25.033Z,0
2017-05-14T00:22:34.995Z,0
2017-05-14T00:23:44.322Z,0
2017-05-14T00:24:54.273Z,0
2017-05-14T00:26:04.225Z,0
2017-05-14T00:27:14.503Z,0
2017-05-14T00:28:24.547Z,0
2017-05-14T00:29:34.505Z,0
2017-05-14T00:30:44.452Z,0
2017-05-14T00:31:54.710Z,0
2017-05-14T00:33:04.657Z,0
2017-05-14T00:34:14.296Z,0
2017-05-14T00:35:24.250Z,0
2017-05-14T00:36:34.203Z,0
2017-05-14T00:37:44.466Z,0
2017-05-14T00:38:54.734Z,0
2017-05-14T00:40:05.002Z,0
2017-05-14T00:41:14.643Z,0
2017-05-14T00:42:24.590Z,0
2017-05-14T00:43:34.546Z,0
2017-05-14T00:44:44.816Z,0
2017-05-14T00:45:55.083Z,0
2017-05-14T00:47:05.035Z,0
2017-05-14T00:48:14.982Z,0
2017-05-14T00:49:25.255Z,0
2017-05-14T00:50:35.206Z,0
2017-05-14T00:51:45.161Z,0
2017-05-14T00:52:55.107Z,0
2017-05-14T00:54:04.744Z,0
2017-05-14T00:55:14.382Z,0
2017-05-14T00:56:24.021Z,0
2017-05-14T00:57:33.974Z,0
2017-05-14T00:58:43.617Z,0
2017-05-14T00:59:53.564Z,0
2017-05-14T01:01:03.831Z,0
2017-05-14T01:02:13.473Z,0
2017-05-14T01:03:23.745Z,0
2017-05-14T01:04:34.006Z,0
2017-05-14T01:05:43.964Z,0
2017-05-14T01:06:53.614Z,0
2017-05-14T01:08:03.877Z,0
2017-05-14T01:09:14.157Z,0
2017-05-14T01:10:24.421Z,0
2017-05-14T01:11:34.686Z,0
2017-05-14T01:12:44.322Z,0
2017-05-14T01:13:54.277Z,0
2017-05-14T01:15:04.545Z,0
2017-05-14T01:16:14.812Z,0
2017-05-14T01:17:24.806Z,0
2017-05-14T01:18:35.068Z,0
2017-05-14T01:19:45.338Z,0
2017-05-14T01:20:55.293Z,0
2017-05-14T01:22:05.241Z,0
2017-05-14T01:23:15.202Z,0
2017-05-14T01:24:25.468Z,0
2017-05-14T01:25:35.419Z,0
2017-05-14T01:26:45.063Z,0
2017-05-14T01:27:55.342Z,0
2017-05-14T01:29:04.989Z,0
2017-05-14T01:30:15.257Z,0
2017-05-14T01:31:24.263Z,0
2017-05-14T01:32:34.528Z,0
2017-05-14T01:33:44.849Z,0
2017-05-14T01:34:55.117Z,0
2017-05-14T01:36:05.381Z,0
2017-05-14T01:37:15.012Z,0
2017-05-14T01:38:24.964Z,0
2017-05-14T01:39:35.227Z,0
2017-05-14T01:40:45.497Z,0
2017-05-14T01:41:55.448Z,0
2017-05-14T01:43:05.397Z,0
2017-05-14T01:44:15.670Z,0
2017-05-14T01:45:25.937Z,0
2017-05-14T01:46:35.901Z,0
2017-05-14T01:47:46.172Z,0
2017-05-14T01:48:56.122Z,0
2017-05-14T01:50:06.077Z,0
2017-05-14T01:51:16.347Z,0
2017-05-14T01:52:26.298Z,0
2017-05-14T01:53:36.571Z,0
2017-05-14T01:54:46.848Z,0
2017-05-14T01:55:56.488Z,0
2017-05-14T01:57:05.818Z,0
2017-05-14T01:58:15.144Z,0
2017-05-14T01:59:24.779Z,0
2017-05-14T02:00:35.048Z,0
2017-05-14T02:01:45.314Z,0
2017-05-14T02:02:55.580Z,0
2017-05-14T02:04:05.525Z,0
2017-05-14T02:05:15.473Z,0
2017-05-14T02:06:25.430Z,0
2017-05-14T02:07:35.705Z,0
2017-05-14T02:08:45.658Z,0
2017-05-14T02:09:55.617Z,0
2017-05-14T02:11:05.880Z,0
2017-05-14T02:12:15.840Z,0
2017-05-14T02:13:25.792Z,0
2017-05-14T02:14:36.067Z,0
2017-05-14T02:15:46.021Z,0
2017-05-14T02:16:55.342Z,0
2017-05-14T02:18:05.611Z,0
2017-05-14T02:19:15.304Z,0
2017-05-14T02:20:25.567Z,0
2017-05-14T02:21:35.828Z,0
2017-05-14T02:22:46.100Z,0
2017-05-14T02:23:56.368Z,0
2017-05-14T02:25:06.317Z,0
2017-05-14T02:26:16.585Z,0
2017-05-14T02:27:26.865Z,0
2017-05-14T02:28:36.825Z,0
2017-05-14T02:29:46.782Z,0
2017-05-14T02:30:57.050Z,0
2017-05-14T02:32:07.318Z,0
2017-05-14T02:33:17.275Z,0
2017-05-14T02:34:26.912Z,0
2017-05-14T02:35:36.866Z,0
2017-05-14T02:36:47.137Z,0
2017-05-14T02:37:57.094Z,0
2017-05-14T02:39:07.096Z,0
2017-05-14T02:40:17.044Z,0
2017-05-14T02:41:27.312Z,0
2017-05-14T02:42:37.264Z,0
2017-05-14T02:43:47.220Z,0
2017-05-14T02:44:57.505Z,0
2017-05-14T02:46:07.774Z,0
2017-05-14T02:47:17.725Z,0
2017-05-14T02:48:27.042Z,0
2017-05-14T02:49:36.995Z,0
2017-05-14T02:50:46.945Z,0
2017-05-14T02:51:56.896Z,0
2017-05-14T02:53:07.161Z,0
2017-05-14T02:54:17.116Z,0
2017-05-14T02:55:27.121Z,0
2017-05-14T02:56:37.395Z,0
2017-05-14T02:57:47.358Z,0
2017-05-14T02:58:57.643Z,0
2017-05-14T03:00:07.905Z,0
2017-05-14T03:01:17.868Z,0
2017-05-14T03:02:28.134Z,0
2017-05-14T03:03:38.404Z,0
2017-05-14T03:04:48.673Z,0
2017-05-14T03:05:58.621Z,0
2017-05-14T03:07:08.580Z,0
2017-05-14T03:08:17.928Z,0
2017-05-14T03:09:28.201Z,0
2017-05-14T03:10:38.156Z,0
2017-05-14T03:11:48.424Z,0
2017-05-14T03:12:58.741Z,0
2017-05-14T03:14:08.708Z,0
2017-05-14T03:15:18.655Z,0
2017-05-14T03:16:28.923Z,0
2017-05-14T03:17:38.875Z,0
2017-05-14T03:18:49.143Z,0
2017-05-14T03:19:59.415Z,0
2017-05-14T03:21:09.364Z,0
2017-05-14T03:22:19.641Z,0
2017-05-14T03:23:29.908Z,0
2017-05-14T03:24:39.861Z,0
2017-05-14T03:25:49.862Z,0
2017-05-14T03:26:59.820Z,0
2017-05-14T03:28:09.774Z,0
2017-05-14T03:29:19.411Z,0
2017-05-14T03:30:29.691Z,0
2017-05-14T03:31:39.948Z,0
2017-05-14T03:32:50.210Z,0
2017-05-14T03:34:00.169Z,0
2017-05-14T03:35:09.807Z,0
2017-05-14T03:36:20.067Z,0
2017-05-14T03:37:30.019Z,0
2017-05-14T03:38:40.286Z,0
2017-05-14T03:39:50.246Z,0
2017-05-14T03:41:00.203Z,0
2017-05-14T03:42:10.467Z,4
2017-05-14T03:43:20.427Z,4
2017-05-14T03:44:30.385Z,4
2017-05-14T03:45:40.650Z,0
2017-05-14T03:46:50.603Z,0
2017-05-14T03:48:00.868Z,0
2017-05-14T03:49:10.504Z,0
2017-05-14T03:50:20.776Z,0
2017-05-14T03:51:31.042Z,0
2017-05-14T03:52:40.989Z,0
2017-05-14T03:53:51.266Z,0
2017-05-14T03:55:00.908Z,0
2017-05-14T03:56:10.856Z,0
2017-05-14T03:57:20.808Z,0
2017-05-14T03:58:31.121Z,4
2017-05-14T03:59:40.763Z,4
2017-05-14T04:00:51.026Z,4
2017-05-14T04:02:01.292Z,0
2017-05-14T04:03:11.238Z,0
2017-05-14T04:04:21.189Z,0
2017-05-14T04:05:30.829Z,0
2017-05-14T04:06:41.102Z,0
2017-05-14T04:07:51.053Z,0
2017-05-14T04:09:01.018Z,0
2017-05-14T04:10:10.967Z,4
2017-05-14T04:11:20.606Z,4
2017-05-14T04:12:30.882Z,4
2017-05-14T04:13:40.837Z,4
2017-05-14T04:14:50.795Z,4
2017-05-14T04:16:01.066Z,0
2017-05-14T04:17:10.701Z,4
2017-05-14T04:18:20.967Z,4
2017-05-14T04:19:31.238Z,4
2017-05-14T04:20:41.502Z,4
2017-05-14T04:21:51.766Z,8
2017-05-14T04:23:02.026Z,4
2017-05-14T04:24:11.668Z,4
2017-05-14T04:25:21.623Z,8
2017-05-14T04:26:31.889Z,4
2017-05-14T04:27:42.165Z,4
2017-05-14T04:28:52.118Z,4
2017-05-14T04:30:02.074Z,8
2017-05-14T04:31:12.026Z,8
2017-05-14T04:32:22.297Z,4
2017-05-14T04:33:32.561Z,8
2017-05-14T04:34:42.867Z,8
2017-05-14T04:35:53.129Z,4
2017-05-14T04:37:03.393Z,4
2017-05-14T04:38:13.672Z,4
2017-05-14T04:39:23.313Z,4
2017-05-14T04:40:33.590Z,8
2017-05-14T04:41:43.539Z,4
2017-05-14T04:42:53.494Z,4
2017-05-14T04:44:03.767Z,8
2017-05-14T04:45:14.032Z,4
2017-05-14T04:46:23.667Z,8
2017-05-14T04:47:33.619Z,4
2017-05-14T04:48:42.960Z,4
2017-05-14T04:49:53.227Z,8
2017-05-14T04:51:03.177Z,4
2017-05-14T04:52:13.136Z,8
2017-05-14T04:53:23.409Z,8
2017-05-14T04:54:33.666Z,8
2017-05-14T04:55:43.622Z,8
2017-05-14T04:56:53.572Z,8
2017-05-14T04:58:03.203Z,4
2017-05-14T04:59:13.499Z,8
2017-05-14T05:00:23.452Z,8
2017-05-14T05:01:33.713Z,4
2017-05-14T05:02:43.996Z,8
2017-05-14T05:03:54.270Z,8
2017-05-14T05:05:04.546Z,8
2017-05-14T05:06:14.808Z,4
2017-05-14T05:07:25.074Z,8
2017-05-14T05:08:34.717Z,12
2017-05-14T05:09:45.016Z,12
2017-05-14T05:10:54.963Z,12
2017-05-14T05:12:05.228Z,12
2017-05-14T05:13:15.499Z,12
2017-05-14T05:14:25.449Z,12
2017-05-14T05:15:35.706Z,8
2017-05-14T05:16:45.659Z,12
2017-05-14T05:17:55.609Z,12
2017-05-14T05:19:05.872Z,12
2017-05-14T05:20:15.826Z,12
2017-05-14T05:21:26.088Z,12
2017-05-14T05:22:36.349Z,12
2017-05-14T05:23:46.636Z,12
2017-05-14T05:24:56.602Z,12
2017-05-14T05:26:06.865Z,8
2017-05-14T05:27:16.818Z,12
2017-05-14T05:28:27.143Z,12
2017-05-14T05:29:37.409Z,12
2017-05-14T05:30:47.677Z,12
2017-05-14T05:31:57.632Z,12
2017-05-14T05:33:07.941Z,12
2017-05-14T05:34:17.900Z,12
2017-05-14T05:35:27.895Z,12
2017-05-14T05:36:37.846Z,12
2017-05-14T05:37:47.801Z,12
2017-05-14T05:38:58.076Z,12
2017-05-14T05:40:08.342Z,12
2017-05-14T05:41:18.298Z,12
2017-05-14T05:42:28.559Z,12
2017-05-14T05:43:38.577Z,12
2017-05-14T05:44:47.588Z,12
2017-05-14T05:45:57.858Z,8
2017-05-14T05:47:08.169Z,12
2017-05-14T05:48:18.455Z,12
2017-05-14T05:49:28.719Z,12
2017-05-14T05:50:38.667Z,12
2017-05-14T05:51:49.018Z,12
2017-05-14T05:52:59.679Z,8
2017-05-14T05:54:09.126Z,12
2017-05-14T05:55:19.400Z,12
2017-05-14T05:56:29.669Z,12
2017-05-14T05:57:39.932Z,8
2017-05-14T05:58:49.889Z,12
2017-05-14T06:00:00.228Z,12
2017-05-14T06:01:10.181Z,12
2017-05-14T06:02:20.133Z,16
2017-05-14T06:03:30.398Z,12
2017-05-14T06:04:40.354Z,12
2017-05-14T06:05:50.615Z,12
2017-05-14T06:07:00.558Z,12
2017-05-14T06:08:10.820Z,16
2017-05-14T06:09:21.086Z,12
2017-05-14T06:10:31.039Z,12
2017-05-14T06:11:40.995Z,16
2017-05-14T06:12:50.629Z,12
2017-05-14T06:14:00.576Z,12
2017-05-14T06:15:10.216Z,16
2017-05-14T06:16:20.480Z,12
2017-05-14T06:17:30.747Z,12
2017-05-14T06:18:40.694Z,16
2017-05-14T06:19:50.972Z,16
2017-05-14T06:21:00.940Z,20
2017-05-14T06:22:10.887Z,28
2017-05-14T06:23:20.838Z,32
2017-05-14T06:24:30.473Z,40
2017-05-14T06:25:40.741Z,48
2017-05-14T06:26:50.376Z,56
2017-05-14T06:28:00.339Z,60
2017-05-14T06:29:10.603Z,72
2017-05-14T06:30:20.869Z,80
2017-05-14T06:31:30.816Z,88
2017-05-14T06:32:40.767Z,80
2017-05-14T06:33:51.034Z,88
2017-05-14T06:35:00.667Z,96
2017-05-14T06:36:10.297Z,108
2017-05-14T06:37:20.241Z,116
2017-05-14T06:38:30.190Z,116
2017-05-14T06:39:40.140Z,112
2017-05-14T06:40:50.405Z,112
2017-05-14T06:42:00.674Z,108
2017-05-14T06:43:10.628Z,112
2017-05-14T06:44:20.891Z,112
2017-05-14T06:45:30.216Z,116
2017-05-14T06:46:39.539Z,164
2017-05-14T06:47:49.490Z,132
2017-05-14T06:48:59.763Z,164
2017-05-14T06:50:09.396Z,120
2017-05-14T06:51:19.354Z,148
2017-05-14T06:52:29.615Z,148
2017-05-14T06:53:39.884Z,144
2017-05-14T06:54:50.149Z,148
2017-05-14T06:56:00.422Z,140
2017-05-14T06:57:10.701Z,136
2017-05-14T06:58:20.971Z,148
2017-05-14T06:59:31.238Z,144
2017-05-14T07:00:41.190Z,156
2017-05-14T07:01:51.144Z,152
2017-05-14T07:03:01.404Z,156
2017-05-14T07:04:11.402Z,164
2017-05-14T07:05:21.666Z,164
2017-05-14T07:06:31.932Z,156
2017-05-14T07:07:42.165Z,156
2017-05-14T07:08:52.656Z,160
2017-05-14T07:10:02.925Z,160
2017-05-14T07:11:12.877Z,156
2017-05-14T07:12:23.221Z,160
2017-05-14T07:13:33.843Z,152
2017-05-14T07:14:44.238Z,156
2017-05-14T07:15:54.203Z,156
2017-05-14T07:17:04.471Z,164
2017-05-14T07:18:14.104Z,156
2017-05-14T07:19:23.782Z,148
2017-05-14T07:20:33.448Z,160
2017-05-14T07:21:43.718Z,152
2017-05-14T07:22:53.355Z,156
2017-05-14T07:24:03.307Z,156
2017-05-14T07:25:13.252Z,128
2017-05-14T07:26:23.206Z,104
2017-05-14T07:27:33.157Z,100
2017-05-14T07:28:42.787Z,104
2017-05-14T07:29:53.050Z,104
2017-05-14T07:31:03.322Z,104
2017-05-14T07:32:13.269Z,100
2017-05-14T07:33:23.217Z,92
2017-05-14T07:34:33.483Z,104
2017-05-14T07:35:43.124Z,100
2017-05-14T07:36:53.078Z,96
2017-05-14T07:38:03.344Z,96
2017-05-14T07:39:13.301Z,92
2017-05-14T07:40:23.254Z,92
2017-05-14T07:41:33.205Z,92
2017-05-14T07:42:43.155Z,92
2017-05-14T07:43:53.419Z,92
2017-05-14T07:45:03.730Z,92
2017-05-14T07:46:13.683Z,92
2017-05-14T07:47:23.948Z,92
2017-05-14T07:48:33.583Z,88
2017-05-14T07:49:43.531Z,88
2017-05-14T07:50:53.806Z,84
2017-05-14T07:52:04.079Z,80
2017-05-14T07:53:14.342Z,80
2017-05-14T07:54:24.300Z,80
2017-05-14T07:55:34.568Z,80
2017-05-14T07:56:44.518Z,76
2017-05-14T07:57:54.157Z,56
2017-05-14T07:59:04.123Z,48
2017-05-14T08:00:14.399Z,40
2017-05-14T08:01:24.352Z,52
2017-05-14T08:02:34.305Z,56
2017-05-14T08:03:44.296Z,56
2017-05-14T08:04:54.240Z,60
2017-05-14T08:06:03.882Z,64
2017-05-14T08:07:13.516Z,64
2017-05-14T08:08:23.472Z,68
2017-05-14T08:09:33.108Z,68
2017-05-14T08:10:43.059Z,68
2017-05-14T08:11:53.012Z,72
2017-05-14T08:13:03.273Z,64
2017-05-14T08:14:13.229Z,64
2017-05-14T08:15:23.185Z,64
2017-05-14T08:16:33.450Z,56
2017-05-14T08:17:43.400Z,56
2017-05-14T08:18:53.670Z,60
2017-05-14T08:20:03.931Z,60
2017-05-14T08:21:14.210Z,56
2017-05-14T08:22:24.483Z,60
2017-05-14T08:23:34.766Z,56
2017-05-14T08:24:44.718Z,52
2017-05-14T08:25:54.994Z,52
2017-05-14T08:27:05.259Z,56
2017-05-14T08:28:14.891Z,56
2017-05-14T08:29:25.158Z,56
2017-05-14T08:30:34.480Z,56
2017-05-14T08:31:44.120Z,52
2017-05-14T08:32:54.072Z,48
2017-05-14T08:34:04.335Z,44
2017-05-14T08:35:13.976Z,32
2017-05-14T08:36:23.930Z,24
2017-05-14T08:37:34.200Z,24
2017-05-14T08:38:44.473Z,40
2017-05-14T08:39:54.782Z,40
2017-05-14T08:41:05.049Z,44
2017-05-14T08:42:15.366Z,44
2017-05-14T08:43:24.995Z,44
2017-05-14T08:44:34.632Z,44
2017-05-14T08:45:44.923Z,40
2017-05-14T08:46:55.193Z,44
2017-05-14T08:48:05.453Z,44
2017-05-14T08:49:15.406Z,40
2017-05-14T08:50:24.727Z,32
2017-05-14T08:51:34.994Z,28
2017-05-14T08:52:44.950Z,36
2017-05-14T08:53:55.217Z,32
2017-05-14T08:55:05.478Z,32
2017-05-14T08:56:15.427Z,32
2017-05-14T08:57:25.381Z,32
2017-05-14T08:58:35.332Z,32
2017-05-14T08:59:44.652Z,32
2017-05-14T09:00:54.931Z,32
2017-05-14T09:02:05.203Z,28
2017-05-14T09:03:15.474Z,32
2017-05-14T09:04:25.756Z,32
2017-05-14T09:05:35.086Z,32
2017-05-14T09:06:44.407Z,28
2017-05-14T09:07:54.366Z,32
2017-05-14T09:09:04.632Z,28
2017-05-14T09:10:14.943Z,16
2017-05-14T09:11:25.206Z,16
2017-05-14T09:12:35.476Z,16
2017-05-14T09:13:45.422Z,20
2017-05-14T09:14:55.133Z,24
2017-05-14T09:16:05.399Z,24
2017-05-14T09:17:15.037Z,28
2017-05-14T09:18:25.303Z,20
2017-05-14T09:19:35.256Z,24
2017-05-14T09:20:45.520Z,28
2017-05-14T09:21:55.477Z,28
2017-05-14T09:23:05.434Z,28
2017-05-14T09:24:15.393Z,32
2017-05-14T09:25:25.658Z,32
2017-05-14T09:26:35.289Z,28
2017-05-14T09:27:45.287Z,28
2017-05-14T09:28:55.234Z,28
2017-05-14T09:30:05.500Z,28
2017-05-14T09:31:15.446Z,28
2017-05-14T09:32:25.714Z,28
2017-05-14T09:33:35.660Z,24
2017-05-14T09:34:45.607Z,24
2017-05-14T09:35:55.870Z,24
2017-05-14T09:37:06.134Z,24
2017-05-14T09:38:15.771Z,24
2017-05-14T09:39:26.033Z,24
2017-05-14T09:40:36.297Z,24
2017-05-14T09:41:46.254Z,20
2017-05-14T09:42:56.197Z,20
2017-05-14T09:44:06.461Z,20
2017-05-14T09:45:16.724Z,20
2017-05-14T09:46:26.723Z,20
2017-05-14T09:47:36.359Z,20
2017-05-14T09:48:45.993Z,16
2017-05-14T09:49:55.946Z,24
2017-05-14T09:51:05.898Z,20
2017-05-14T09:52:15.537Z,24
2017-05-14T09:53:25.806Z,24
2017-05-14T09:54:36.070Z,24
2017-05-14T09:55:46.337Z,24
2017-05-14T09:56:56.295Z,20
2017-05-14T09:58:05.938Z,24
2017-05-14T09:59:15.889Z,24
2017-05-14T10:00:25.842Z,24
2017-05-14T10:01:35.796Z,24
2017-05-14T10:02:46.054Z,20
2017-05-14T10:03:56.316Z,20
2017-05-14T10:05:06.270Z,20
2017-05-14T10:06:15.910Z,20
2017-05-14T10:07:25.863Z,20
2017-05-14T10:08:36.123Z,20
2017-05-14T10:09:46.389Z,20
2017-05-14T10:10:56.544Z,20
2017-05-14T10:12:06.820Z,20
2017-05-14T10:13:16.457Z,20
2017-05-14T10:14:26.721Z,20
2017-05-14T10:15:36.693Z,20
2017-05-14T10:16:46.655Z,20
2017-05-14T10:17:56.294Z,20
2017-05-14T10:19:06.567Z,20
2017-05-14T10:20:16.199Z,16
2017-05-14T10:21:26.478Z,20
2017-05-14T10:22:36.747Z,20
2017-05-14T10:23:46.702Z,20
2017-05-14T10:24:56.962Z,20
2017-05-14T10:26:06.917Z,20
2017-05-14T10:27:16.240Z,20
2017-05-14T10:28:26.510Z,24
2017-05-14T10:29:36.776Z,16
2017-05-14T10:30:47.048Z,20
2017-05-14T10:31:56.686Z,16
2017-05-14T10:33:06.636Z,20
2017-05-14T10:34:16.906Z,32
2017-05-14T10:35:27.171Z,28
2017-05-14T10:36:37.129Z,36
2017-05-14T10:37:47.393Z,36
2017-05-14T10:38:57.660Z,32
2017-05-14T10:40:07.619Z,32
2017-05-14T10:41:17.267Z,32
2017-05-14T10:42:27.529Z,36
2017-05-14T10:43:37.478Z,28
2017-05-14T10:44:47.746Z,20
2017-05-14T10:45:57.708Z,16
2017-05-14T10:47:07.974Z,20
2017-05-14T10:48:17.301Z,20
2017-05-14T10:49:27.252Z,20
2017-05-14T10:50:37.522Z,16
2017-05-14T10:51:47.790Z,16
2017-05-14T10:52:58.059Z,12
2017-05-14T10:54:07.705Z,12
2017-05-14T10:55:18.000Z,12
2017-05-14T10:56:27.945Z,12
2017-05-14T10:57:38.202Z,12
2017-05-14T10:58:48.472Z,16
2017-05-14T10:59:59.387Z,12
2017-05-14T11:01:09.659Z,12
2017-05-14T11:02:19.935Z,12
2017-05-14T11:03:29.924Z,16
2017-05-14T11:04:39.879Z,12
2017-05-14T11:05:49.544Z,12
2017-05-14T11:06:59.816Z,16
2017-05-14T11:08:10.083Z,16
2017-05-14T11:09:20.025Z,16
2017-05-14T11:10:30.299Z,12
2017-05-14T11:11:40.249Z,16
2017-05-14T11:12:50.223Z,16
2017-05-14T11:14:00.173Z,12
2017-05-14T11:15:10.443Z,12
2017-05-14T11:16:20.711Z,12
2017-05-14T11:17:30.994Z,12
2017-05-14T11:18:40.312Z,12
2017-05-14T11:19:50.267Z,8
2017-05-14T11:21:00.534Z,8
2017-05-14T11:22:10.168Z,12
2017-05-14T11:23:20.434Z,12
2017-05-14T11:24:30.382Z,8
2017-05-14T11:25:40.331Z,12
2017-05-14T11:26:50.591Z,8
2017-05-14T11:28:00.540Z,12
2017-05-14T11:29:10.800Z,12
2017-05-14T11:30:20.747Z,8
2017-05-14T11:31:31.013Z,12
2017-05-14T11:32:40.968Z,12
2017-05-14T11:33:51.227Z,12
2017-05-14T11:35:01.504Z,12
2017-05-14T11:36:11.770Z,12
2017-05-14T11:37:21.731Z,12
2017-05-14T11:38:31.690Z,8
2017-05-14T11:39:41.320Z,8
2017-05-14T11:40:51.268Z,12
2017-05-14T11:42:01.554Z,8
2017-05-14T11:43:11.814Z,12
2017-05-14T11:44:21.771Z,8
2017-05-14T11:45:31.723Z,12
2017-05-14T11:46:41.366Z,12
2017-05-14T11:47:51.011Z,12
2017-05-14T11:49:00.650Z,8
2017-05-14T11:50:10.286Z,8
2017-05-14T11:51:20.243Z,8
2017-05-14T11:52:30.528Z,12
2017-05-14T11:53:40.480Z,12
2017-05-14T11:54:50.115Z,12
2017-05-14T11:56:00.075Z,12
2017-05-14T11:57:10.028Z,12
2017-05-14T11:58:19.971Z,12
2017-05-14T11:59:29.607Z,12
2017-05-14T12:00:39.561Z,12
2017-05-14T12:01:49.515Z,12
2017-05-14T12:02:58.833Z,12
2017-05-14T12:04:09.096Z,12
2017-05-14T12:05:18.741Z,12
2017-05-14T12:06:28.381Z,12
2017-05-14T12:07:38.647Z,12
2017-05-14T12:08:48.916Z,12
2017-05-14T12:09:59.178Z,12
2017-05-14T12:11:09.443Z,12
2017-05-14T12:12:19.703Z,12
2017-05-14T12:13:29.654Z,12
2017-05-14T12:14:39.657Z,8
2017-05-14T12:15:49.928Z,8
2017-05-14T12:16:59.565Z,8
2017-05-14T12:18:09.834Z,8
2017-05-14T12:19:19.786Z,8
2017-05-14T12:20:29.734Z,8
2017-05-14T12:21:40.050Z,8
2017-05-14T12:22:50.318Z,8
2017-05-14T12:24:00.269Z,8
2017-05-14T12:25:10.213Z,4
2017-05-14T12:26:20.165Z,8
2017-05-14T12:27:30.128Z,8
2017-05-14T12:28:40.400Z,4
2017-05-14T12:29:50.668Z,8
2017-05-14T12:31:00.935Z,8
2017-05-14T12:32:10.889Z,8
2017-05-14T12:33:21.155Z,8
2017-05-14T12:34:31.428Z,8
2017-05-14T12:35:41.393Z,4
2017-05-14T12:36:51.662Z,4
2017-05-14T12:38:01.614Z,8
2017-05-14T12:39:11.882Z,8
2017-05-14T12:40:21.518Z,8
2017-05-14T12:41:31.154Z,8
2017-05-14T12:42:41.421Z,8
2017-05-14T12:43:51.683Z,8
2017-05-14T12:45:01.950Z,8
2017-05-14T12:46:11.587Z,8
2017-05-14T12:47:21.858Z,4
2017-05-14T12:48:31.812Z,4
2017-05-14T12:49:41.762Z,8
2017-05-14T12:50:51.717Z,8
2017-05-14T12:52:01.670Z,8
2017-05-14T12:53:11.612Z,4
2017-05-14T12:54:21.564Z,4
2017-05-14T12:55:31.834Z,4
2017-05-14T12:56:41.787Z,8
2017-05-14T12:57:52.056Z,8
2017-05-14T12:59:02.339Z,4
2017-05-14T13:00:11.685Z,4
2017-05-14T13:01:21.644Z,4
2017-05-14T13:02:31.634Z,4
2017-05-14T13:03:41.939Z,4
2017-05-14T13:04:51.583Z,4
2017-05-14T13:06:01.856Z,4
2017-05-14T13:07:11.808Z,4
2017-05-14T13:08:21.446Z,4
2017-05-14T13:09:31.742Z,4
2017-05-14T13:10:41.690Z,4
2017-05-14T13:11:51.651Z,4
2017-05-14T13:13:01.597Z,4
2017-05-14T13:14:11.864Z,0
2017-05-14T13:15:21.817Z,0
2017-05-14T13:16:32.077Z,0
2017-05-14T13:17:42.030Z,0
2017-05-14T13:18:52.299Z,4
2017-05-14T13:20:02.564Z,4
2017-05-14T13:21:12.526Z,4
2017-05-14T13:22:22.799Z,0
2017-05-14T13:23:33.067Z,0
2017-05-14T13:24:43.334Z,4
2017-05-14T13:25:53.648Z,0
2017-05-14T13:27:03.908Z,4
2017-05-14T13:28:13.860Z,0
2017-05-14T13:29:23.815Z,4
2017-05-14T13:30:33.769Z,4
2017-05-14T13:31:43.717Z,4
2017-05-14T13:32:54.029Z,4
2017-05-14T13:34:04.296Z,4
2017-05-14T13:35:14.577Z,4
2017-05-14T13:36:24.527Z,4
2017-05-14T13:37:34.793Z,4
2017-05-14T13:38:45.060Z,4
2017-05-14T13:39:55.021Z,4
2017-05-14T13:41:04.661Z,4
2017-05-14T13:42:14.927Z,4
2017-05-14T13:43:25.195Z,4
2017-05-14T13:44:35.464Z,0
2017-05-14T13:45:45.735Z,0
2017-05-14T13:46:56.011Z,0
2017-05-14T13:48:06.276Z,0
2017-05-14T13:49:16.226Z,4
2017-05-14T13:50:26.496Z,4
2017-05-14T13:51:36.761Z,4
2017-05-14T13:52:46.719Z,4
2017-05-14T13:53:56.985Z,4
2017-05-14T13:55:06.305Z,4
2017-05-14T13:56:15.932Z,4
2017-05-14T13:57:26.201Z,4
2017-05-14T13:58:36.466Z,0
2017-05-14T13:59:46.100Z,4
2017-05-14T14:00:55.742Z,4
2017-05-14T14:02:05.689Z,4
2017-05-14T14:03:15.949Z,0
2017-05-14T14:04:25.897Z,4
2017-05-14T14:05:36.168Z,0
2017-05-14T14:06:45.809Z,4
2017-05-14T14:07:55.761Z,0
2017-05-14T14:09:05.721Z,0
2017-05-14T14:10:15.676Z,4
2017-05-14T14:11:25.627Z,4
2017-05-14T14:12:35.580Z,4
2017-05-14T14:13:45.870Z,4
2017-05-14T14:14:56.134Z,4
2017-05-14T14:16:06.404Z,4
2017-05-14T14:17:16.041Z,4
2017-05-14T14:18:26.314Z,24
2017-05-14T14:19:36.585Z,20
2017-05-14T14:20:46.537Z,20
2017-05-14T14:21:56.806Z,20
2017-05-14T14:23:06.764Z,20
2017-05-14T14:24:16.707Z,20
2017-05-14T14:25:26.026Z,20
2017-05-14T14:26:36.295Z,20
2017-05-14T14:27:46.244Z,20
2017-05-14T14:28:56.512Z,24
2017-05-14T14:30:06.167Z,20
2017-05-14T14:31:16.114Z,4
2017-05-14T14:32:26.066Z,0
2017-05-14T14:33:36.335Z,0
2017-05-14T14:34:46.593Z,0
2017-05-14T14:35:56.587Z,4
2017-05-14T14:37:06.283Z,4
2017-05-14T14:38:16.549Z,4
2017-05-14T14:39:26.501Z,4
2017-05-14T14:40:36.761Z,4
2017-05-14T14:41:46.720Z,4
2017-05-14T14:42:56.685Z,4
2017-05-14T14:44:06.637Z,4
2017-05-14T14:45:16.601Z,4
2017-05-14T14:46:26.902Z,4
2017-05-14T14:47:36.672Z,4
2017-05-14T14:48:46.979Z,4
2017-05-14T14:49:56.928Z,4
2017-05-14T14:51:06.889Z,4
2017-05-14T14:52:16.845Z,4
2017-05-14T14:53:27.109Z,4
2017-05-14T14:54:37.377Z,4
2017-05-14T14:55:47.327Z,4
2017-05-14T14:56:57.279Z,4
2017-05-14T14:58:07.543Z,4
2017-05-14T14:59:17.810Z,4
2017-05-14T15:00:27.757Z,4
2017-05-14T15:01:38.027Z,4
2017-05-14T15:02:48.286Z,4
2017-05-14T15:03:57.925Z,4
2017-05-14T15:05:07.565Z,8
2017-05-14T15:06:17.516Z,8
2017-05-14T15:07:27.465Z,8
2017-05-14T15:08:37.418Z,4
2017-05-14T15:09:47.677Z,8
2017-05-14T15:10:57.937Z,8
2017-05-14T15:12:07.894Z,4
2017-05-14T15:13:18.159Z,8
2017-05-14T15:14:27.816Z,8
2017-05-14T15:15:38.074Z,8
2017-05-14T15:16:48.350Z,8
2017-05-14T15:17:58.623Z,8
2017-05-14T15:19:08.262Z,8
2017-05-14T15:20:17.587Z,8
2017-05-14T15:21:27.896Z,8
2017-05-14T15:22:38.160Z,8
2017-05-14T15:23:48.427Z,8
2017-05-14T15:24:58.062Z,8
2017-05-14T15:26:08.021Z,8
2017-05-14T15:27:17.709Z,8
2017-05-14T15:28:27.973Z,8
2017-05-14T15:29:37.921Z,8
2017-05-14T15:30:47.876Z,8
2017-05-14T15:31:57.839Z,8
2017-05-14T15:33:08.108Z,12
2017-05-14T15:34:18.115Z,8
2017-05-14T15:35:28.389Z,12
2017-05-14T15:36:38.654Z,12
2017-05-14T15:37:48.919Z,12
2017-05-14T15:38:59.181Z,12
2017-05-14T15:40:08.506Z,8
2017-05-14T15:41:18.770Z,12
2017-05-14T15:42:28.724Z,12
2017-05-14T15:43:38.992Z,12
2017-05-14T15:44:49.259Z,12
2017-05-14T15:46:00.022Z,8
2017-05-14T15:47:10.288Z,12
2017-05-14T15:48:20.555Z,8
2017-05-14T15:49:30.839Z,8
2017-05-14T15:50:40.786Z,8
2017-05-14T15:51:50.424Z,8
2017-05-14T15:53:00.698Z,8
2017-05-14T15:54:10.335Z,8
2017-05-14T15:55:19.968Z,8
2017-05-14T15:56:29.302Z,8
2017-05-14T15:57:38.941Z,4
2017-05-14T15:58:49.206Z,8
2017-05-14T15:59:58.903Z,4
2017-05-14T16:01:08.930Z,4
2017-05-14T16:02:18.641Z,4
2017-05-14T16:03:28.278Z,4
2017-05-14T16:04:38.228Z,4
2017-05-14T16:05:48.553Z,4
2017-05-14T16:06:58.871Z,4
2017-05-14T16:08:08.821Z,0
2017-05-14T16:09:18.773Z,0
2017-05-14T16:10:28.437Z,0
2017-05-14T16:11:38.716Z,4
2017-05-14T16:12:48.404Z,0
2017-05-14T16:13:58.354Z,0
2017-05-14T16:15:08.630Z,0
2017-05-14T16:16:18.609Z,0
2017-05-14T16:17:28.596Z,4
2017-05-14T16:18:38.550Z,0
2017-05-14T16:19:48.196Z,0
2017-05-14T16:20:58.515Z,4
2017-05-14T16:22:08.471Z,4
2017-05-14T16:23:17.793Z,4
2017-05-14T16:24:28.059Z,4
2017-05-14T16:25:38.014Z,4
2017-05-14T16:26:48.278Z,4
2017-05-14T16:27:58.538Z,0
2017-05-14T16:29:08.488Z,0
2017-05-14T16:30:18.757Z,0
2017-05-14T16:31:28.708Z,0
2017-05-14T16:32:38.353Z,0
2017-05-14T16:33:48.620Z,0
2017-05-14T16:34:58.618Z,0
2017-05-14T16:36:08.885Z,0
2017-05-14T16:37:18.838Z,4
2017-05-14T16:38:29.099Z,4
2017-05-14T16:39:39.050Z,4
2017-05-14T16:40:48.999Z,4
2017-05-14T16:41:59.275Z,4
2017-05-14T16:43:09.545Z,4
2017-05-14T16:44:19.802Z,4
2017-05-14T16:45:29.799Z,4
2017-05-14T16:46:39.749Z,4
2017-05-14T16:47:49.699Z,4
2017-05-14T16:48:59.022Z,4
2017-05-14T16:50:08.970Z,4
2017-05-14T16:51:18.925Z,0
2017-05-14T16:52:29.190Z,0
2017-05-14T16:53:39.142Z,0
2017-05-14T16:54:48.776Z,4
2017-05-14T16:55:58.729Z,0
2017-05-14T16:57:09.000Z,0